Time;durP1;ratioP1;P1;durP2;ratioP2;P2;SDS_P1;SDS_P2;PMS_P1;PMS_P2;Temp;Humidity;BMP_temperature;BMP_pressure;BME280_temperature;BME280_humidity;BME280_pressure;Samples;Min_cycle;Max_cycle;Signal;HPM_P1;HPM_P2
2021/09/30 00:02:03;;;;;;;3.10;3.00;;;14.80;58.10;;;;;;5031520;28;20037;-87
2021/09/30 00:04:29;;;;;;;3.10;3.00;;;14.70;58.00;;;;;;5032217;28;20052;-86
2021/09/30 00:06:56;;;;;;;3.35;3.15;;;14.70;58.10;;;;;;5029949;28;20029;-87
2021/09/30 00:09:22;;;;;;;3.10;3.00;;;14.70;58.20;;;;;;5032342;28;20046;-87
2021/09/30 00:11:52;;;;;;;3.05;2.95;;;14.70;58.20;;;;;;5032832;28;20048;-86
2021/09/30 00:15:28;;;;;;;3.00;2.90;;;14.60;58.30;;;;;;5031976;28;20058;-86
2021/09/30 00:33:39;;;;;;;3.00;2.90;;;14.40;58.70;;;;;;5037908;28;20052;-87
2021/09/30 00:36:12;;;;;;;3.08;2.97;;;14.40;58.80;;;;;;5031790;28;20096;-86
2021/09/30 00:49:20;;;;;;;3.05;2.95;;;14.20;59.10;;;;;;5035604;28;20476;-86
2021/09/30 00:52:40;;;;;;;3.10;3.00;;;14.20;59.10;;;;;;5035008;28;20041;-86
2021/09/30 01:45:57;;;;;;;3.15;3.05;;;13.60;60.00;;;;;;4901044;29;20043;-86
2021/09/30 02:39:00;;;;;;;2.80;2.70;;;13.10;61.00;;;;;;5033360;28;20048;-87
2021/09/30 02:59:59;;;;;;;6.45;3.25;;;12.90;61.40;;;;;;5034376;28;20076;-87
2021/09/30 03:02:26;;;;;;;2.90;2.80;;;12.80;61.40;;;;;;5032264;28;20042;-86
2021/09/30 03:04:52;;;;;;;2.90;2.80;;;12.80;61.50;;;;;;5032161;28;20415;-87
2021/09/30 03:07:18;;;;;;;2.72;2.53;;;12.80;61.50;;;;;;5032688;28;20384;-86
2021/09/30 03:09:46;;;;;;;2.72;2.63;;;12.80;61.60;;;;;;5015663;28;20048;-87
2021/09/30 03:15:02;;;;;;;2.90;2.80;;;12.70;61.80;;;;;;5034856;28;20326;-87
2021/09/30 03:17:42;;;;;;;2.60;2.50;;;12.70;61.70;;;;;;5016190;28;20033;-86
2021/09/30 03:23:03;;;;;;;2.72;2.63;;;12.70;61.80;;;;;;5029511;28;20048;-86
2021/09/30 03:25:29;;;;;;;3.00;2.90;;;12.60;61.70;;;;;;5031669;28;20049;-87
2021/09/30 03:27:55;;;;;;;2.70;2.60;;;12.60;61.80;;;;;;5014894;28;20045;-87
2021/09/30 03:30:23;;;;;;;3.00;2.90;;;12.60;61.90;;;;;;5014237;28;22300;-87
2021/09/30 03:32:50;;;;;;;2.90;2.80;;;12.60;61.90;;;;;;5015627;28;20045;-87
2021/09/30 03:35:16;;;;;;;2.60;2.50;;;12.50;61.90;;;;;;5032065;28;20033;-87
2021/09/30 03:37:42;;;;;;;2.80;2.70;;;12.50;62.10;;;;;;5031530;28;20029;-88
2021/09/30 03:40:09;;;;;;;13.85;2.78;;;12.50;62.10;;;;;;5031793;28;20421;-88
2021/09/30 03:42:35;;;;;;;3.00;2.90;;;12.50;62.10;;;;;;5034387;28;20036;-88
2021/09/30 03:45:01;;;;;;;2.80;2.70;;;12.50;62.20;;;;;;5033720;28;20022;-88
2021/09/30 03:47:27;;;;;;;2.80;2.70;;;12.50;62.20;;;;;;5032019;28;20041;-87
2021/09/30 03:49:54;;;;;;;2.70;2.60;;;12.40;62.20;;;;;;5031153;28;20420;-88
2021/09/30 03:56:00;;;;;;;2.85;2.75;;;12.40;62.30;;;;;;5032798;28;20506;-90
2021/09/30 04:00:26;;;;;;;2.60;2.50;;;12.30;62.30;;;;;;5034197;28;20044;-90
2021/09/30 04:02:52;;;;;;;2.70;2.60;;;12.30;62.40;;;;;;5033629;28;20036;-89
2021/09/30 04:05:18;;;;;;;2.70;2.60;;;12.30;62.40;;;;;;5032799;28;20021;-89
2021/09/30 04:07:44;;;;;;;2.63;2.53;;;12.30;62.50;;;;;;5033123;28;20029;-90
2021/09/30 04:10:10;;;;;;;2.67;2.58;;;12.20;62.50;;;;;;5032980;28;20029;-90
2021/09/30 04:12:36;;;;;;;2.55;2.45;;;12.20;62.60;;;;;;5032987;28;20038;-90
2021/09/30 04:15:03;;;;;;;2.75;2.65;;;12.20;62.70;;;;;;5033018;28;20468;-88
2021/09/30 04:17:29;;;;;;;2.80;2.70;;;12.20;62.70;;;;;;5031627;28;20040;-90
2021/09/30 04:19:55;;;;;;;2.85;2.70;;;12.20;62.70;;;;;;5027408;28;20041;-89
2021/09/30 04:22:21;;;;;;;2.60;2.50;;;12.20;62.70;;;;;;5032656;28;20029;-89
2021/09/30 04:24:48;;;;;;;2.80;2.70;;;12.10;62.60;;;;;;5032963;28;20037;-90
2021/09/30 04:27:15;;;;;;;2.63;2.53;;;12.10;62.70;;;;;;5031768;28;20038;-89
2021/09/30 04:29:41;;;;;;;2.70;2.60;;;12.00;62.70;;;;;;5033206;28;20037;-89
2021/09/30 04:32:07;;;;;;;2.80;2.70;;;12.00;62.80;;;;;;5029138;28;20040;-89
2021/09/30 04:34:33;;;;;;;2.80;2.70;;;12.00;62.90;;;;;;5031147;28;20101;-89
2021/09/30 04:36:59;;;;;;;2.80;2.70;;;12.00;63.00;;;;;;5013688;28;20037;-90
2021/09/30 04:39:25;;;;;;;2.70;2.60;;;12.00;63.00;;;;;;5032293;28;20029;-90
2021/09/30 04:41:52;;;;;;;2.67;2.58;;;11.90;63.00;;;;;;5032894;28;20042;-90
2021/09/30 04:44:20;;;;;;;2.63;2.53;;;11.90;63.00;;;;;;5031365;28;20029;-89
2021/09/30 04:46:46;;;;;;;2.83;2.63;;;11.90;63.00;;;;;;5029999;28;20136;-90
2021/09/30 04:49:12;;;;;;;3.15;2.90;;;11.90;63.10;;;;;;5031983;28;20036;-89
2021/09/30 04:51:39;;;;;;;2.85;2.70;;;11.90;63.20;;;;;;5032499;28;20029;-89
2021/09/30 04:54:05;;;;;;;2.80;2.60;;;11.80;63.20;;;;;;5031268;28;20037;-89
2021/09/30 04:56:31;;;;;;;2.67;2.58;;;11.80;63.20;;;;;;5031327;28;20044;-89
2021/09/30 04:58:59;;;;;;;2.58;2.47;;;11.80;63.20;;;;;;5031980;28;20049;-90
2021/09/30 05:01:25;;;;;;;2.88;2.78;;;11.80;63.20;;;;;;5031606;28;20033;-89
2021/09/30 05:03:51;;;;;;;2.70;2.60;;;11.80;63.20;;;;;;5029379;28;20041;-89
2021/09/30 05:06:17;;;;;;;2.80;2.70;;;11.80;63.20;;;;;;5032203;28;20021;-89
2021/09/30 05:08:45;;;;;;;2.50;2.40;;;11.70;63.20;;;;;;5032440;28;20033;-90
2021/09/30 05:11:11;;;;;;;2.90;2.80;;;11.80;63.30;;;;;;5030599;28;20037;-90
2021/09/30 05:13:42;;;;;;;2.70;2.60;;;11.70;63.20;;;;;;5029804;28;20408;-89
2021/09/30 05:16:12;;;;;;;2.92;2.83;;;11.70;63.30;;;;;;5029080;28;20042;-90
2021/09/30 05:18:48;;;;;;;2.65;2.55;;;11.70;63.30;;;;;;5014878;28;20357;-89
2021/09/30 05:21:14;;;;;;;2.60;2.50;;;11.70;63.30;;;;;;5027246;28;20368;-89
2021/09/30 05:23:40;;;;;;;2.80;2.70;;;11.70;63.30;;;;;;5032061;28;20032;-90
2021/09/30 05:26:06;;;;;;;9.38;3.22;;;11.60;64.20;;;;;;5031141;28;20030;-89
2021/09/30 05:28:32;;;;;;;2.70;2.60;;;11.60;63.40;;;;;;5030164;28;20037;-89
2021/09/30 05:31:00;;;;;;;2.83;2.72;;;11.60;63.50;;;;;;5030551;28;20033;-89
2021/09/30 05:33:26;;;;;;;2.72;2.63;;;11.60;63.50;;;;;;5029908;28;20048;-89
2021/09/30 05:35:53;;;;;;;2.60;2.50;;;11.60;63.60;;;;;;5032231;28;20037;-89
2021/09/30 05:38:20;;;;;;;2.72;2.63;;;11.50;63.50;;;;;;5013582;28;20032;-87
2021/09/30 05:40:48;;;;;;;3.22;3.03;;;11.50;63.60;;;;;;5031288;28;20060;-87
2021/09/30 05:43:32;;;;;;;3.03;2.83;;;11.50;63.70;;;;;;5024974;28;20049;-86
2021/09/30 05:45:59;;;;;;;2.90;2.80;;;11.50;63.70;;;;;;5028849;28;20034;-86
2021/09/30 05:48:25;;;;;;;2.70;2.60;;;11.50;63.70;;;;;;5030308;28;20059;-87
2021/09/30 05:50:52;;;;;;;2.65;2.55;;;11.50;63.70;;;;;;5031320;28;20527;-87
2021/09/30 05:53:18;;;;;;;2.50;2.40;;;11.40;63.70;;;;;;5030675;28;20028;-85
2021/09/30 05:55:45;;;;;;;2.58;2.47;;;11.40;63.80;;;;;;5029538;28;20029;-85
2021/09/30 05:58:11;;;;;;;2.70;2.60;;;11.40;63.80;;;;;;5031076;28;20042;-85
2021/09/30 06:11:24;;;;;;;2.50;2.40;;;11.40;63.80;;;;;;5017201;28;20048;-85
2021/09/30 06:16:22;;;;;;;2.60;2.50;;;11.30;63.80;;;;;;5032026;28;20033;-86
2021/09/30 06:18:48;;;;;;;2.67;2.58;;;11.30;63.80;;;;;;5029710;28;20044;-85
2021/09/30 06:21:14;;;;;;;2.50;2.40;;;11.30;63.90;;;;;;5028533;28;20029;-90
2021/09/30 06:23:40;;;;;;;2.53;2.42;;;11.30;63.80;;;;;;5029712;28;20040;-87
2021/09/30 06:26:06;;;;;;;2.63;2.53;;;11.40;63.90;;;;;;5028366;28;20038;-87
2021/09/30 06:28:33;;;;;;;2.63;2.50;;;11.40;63.90;;;;;;5032536;28;20038;-86
2021/09/30 06:30:59;;;;;;;2.58;2.47;;;11.40;63.90;;;;;;5028794;28;20041;-87
2021/09/30 06:33:25;;;;;;;3.33;3.13;;;11.40;63.80;;;;;;5029586;28;20040;-85
2021/09/30 06:35:51;;;;;;;2.78;2.67;;;11.40;63.80;;;;;;5030884;28;20038;-86
2021/09/30 06:38:18;;;;;;;2.67;2.58;;;11.40;63.80;;;;;;5044054;28;20400;-84
2021/09/30 06:40:45;;;;;;;2.97;2.88;;;11.40;63.80;;;;;;5030210;28;20025;-84
2021/09/30 06:43:11;;;;;;;2.80;2.70;;;11.50;63.80;;;;;;5030498;28;20060;-84
2021/09/30 06:45:38;;;;;;;2.97;2.88;;;11.50;63.70;;;;;;5029109;28;20037;-85
2021/09/30 06:48:04;;;;;;;2.75;2.65;;;11.50;63.70;;;;;;5012658;28;20042;-88
2021/09/30 06:50:30;;;;;;;2.80;2.70;;;11.50;63.60;;;;;;5030328;28;20465;-87
2021/09/30 06:52:56;;;;;;;3.33;3.03;;;11.60;63.60;;;;;;5062068;28;20041;-85
2021/09/30 06:55:22;;;;;;;2.97;2.88;;;11.60;63.60;;;;;;5029953;28;20052;-85
2021/09/30 06:57:50;;;;;;;2.97;2.88;;;11.60;63.60;;;;;;5032410;28;20033;-85
2021/09/30 07:00:16;;;;;;;3.60;3.33;;;11.70;63.60;;;;;;5060644;28;20048;-87
2021/09/30 07:02:42;;;;;;;3.00;2.90;;;11.80;63.50;;;;;;5029486;28;20039;-84
2021/09/30 07:05:10;;;;;;;3.47;3.28;;;12.10;63.10;;;;;;5046807;28;20029;-85
2021/09/30 07:07:37;;;;;;;3.10;3.00;;;12.50;62.20;;;;;;5025213;28;20029;-87
2021/09/30 07:10:04;;;;;;;3.10;3.00;;;13.00;61.20;;;;;;5048849;28;20044;-86
2021/09/30 07:12:30;;;;;;;3.47;3.15;;;13.40;60.30;;;;;;5064758;28;20041;-86
2021/09/30 07:14:56;;;;;;;3.70;3.50;;;13.70;59.80;;;;;;5032877;28;20483;-87
2021/09/30 07:17:22;;;;;;;3.28;3.17;;;13.90;59.50;;;;;;5032262;28;20053;-87
2021/09/30 07:19:48;;;;;;;3.40;3.30;;;14.10;59.30;;;;;;5032670;28;20039;-84
2021/09/30 07:22:15;;;;;;;3.60;3.40;;;14.20;59.20;;;;;;5033983;28;20026;-87
2021/09/30 07:24:41;;;;;;;3.70;3.50;;;14.40;59.20;;;;;;5034242;28;20025;-86
2021/09/30 07:27:08;;;;;;;3.53;3.38;;;14.40;59.20;;;;;;5029791;28;20035;-84
2021/09/30 07:29:34;;;;;;;3.75;3.55;;;14.50;59.20;;;;;;5033922;28;20030;-84
2021/09/30 07:32:00;;;;;;;3.70;3.50;;;14.70;59.00;;;;;;5028753;28;20037;-84
2021/09/30 07:34:26;;;;;;;3.60;3.40;;;14.90;58.70;;;;;;5029154;28;20056;-83
2021/09/30 07:36:53;;;;;;;4.65;4.30;;;15.00;58.60;;;;;;5063675;28;20034;-85
2021/09/30 07:39:19;;;;;;;3.65;3.45;;;15.00;58.60;;;;;;5033915;28;20032;-86
2021/09/30 07:41:45;;;;;;;3.83;3.63;;;15.10;58.80;;;;;;5016386;28;20042;-87
2021/09/30 07:44:11;;;;;;;3.90;3.70;;;15.30;58.70;;;;;;5048970;28;20029;-83
2021/09/30 07:46:38;;;;;;;4.15;3.85;;;15.50;58.60;;;;;;5031619;28;20029;-81
2021/09/30 07:49:05;;;;;;;4.35;4.15;;;15.70;58.40;;;;;;5033784;28;20044;-82
2021/09/30 07:51:32;;;;;;;3.90;3.70;;;15.90;58.00;;;;;;5033064;28;20041;-86
2021/09/30 07:53:58;;;;;;;3.80;3.60;;;16.20;57.80;;;;;;5032575;28;20052;-86
2021/09/30 07:56:25;;;;;;;4.00;3.80;;;16.20;57.60;;;;;;5029781;28;20045;-82
2021/09/30 07:58:51;;;;;;;4.00;3.80;;;16.40;57.60;;;;;;5029767;28;20483;-85
2021/09/30 08:01:19;;;;;;;4.20;4.00;;;16.60;57.50;;;;;;5038665;28;20215;-82
2021/09/30 08:03:46;;;;;;;3.97;3.78;;;16.90;57.30;;;;;;5047122;28;20037;-82
2021/09/30 08:06:12;;;;;;;3.83;3.63;;;17.10;57.00;;;;;;5031467;28;20048;-82
2021/09/30 08:08:38;;;;;;;3.80;3.60;;;17.20;56.90;;;;;;5032098;28;20029;-83
2021/09/30 08:11:04;;;;;;;3.67;3.47;;;17.20;56.90;;;;;;5059700;28;20045;-83
2021/09/30 08:13:31;;;;;;;4.07;3.88;;;17.40;56.90;;;;;;5030897;28;20026;-82
2021/09/30 08:15:58;;;;;;;4.30;4.10;;;17.70;56.70;;;;;;5031315;28;20442;-82
2021/09/30 08:18:24;;;;;;;4.18;3.97;;;17.90;56.30;;;;;;5063732;28;20026;-83
2021/09/30 08:20:50;;;;;;;4.50;4.30;;;18.00;56.10;;;;;;5032514;28;20033;-82
2021/09/30 08:23:17;;;;;;;4.15;3.95;;;18.00;56.30;;;;;;5026239;28;20026;-82
2021/09/30 08:25:43;;;;;;;4.30;4.10;;;18.30;56.20;;;;;;5009604;28;20041;-77
2021/09/30 08:28:09;;;;;;;4.47;4.28;;;18.40;56.00;;;;;;5030059;28;20041;-78
2021/09/30 08:30:36;;;;;;;4.38;4.18;;;18.50;56.00;;;;;;5032085;28;20041;-77
2021/09/30 08:33:02;;;;;;;4.30;4.10;;;18.70;56.00;;;;;;5011960;28;20038;-78
2021/09/30 08:35:28;;;;;;;5.03;4.75;;;18.80;55.80;;;;;;5020625;28;20034;-78
2021/09/30 08:37:55;;;;;;;4.50;4.30;;;18.90;55.60;;;;;;5026027;28;20030;-79
2021/09/30 08:40:22;;;;;;;4.22;4.03;;;19.00;55.60;;;;;;5010276;28;20038;-78
2021/09/30 08:42:48;;;;;;;4.50;4.30;;;19.00;55.60;;;;;;5041039;28;20029;-78
2021/09/30 08:45:19;;;;;;;4.63;4.22;;;19.10;55.50;;;;;;5031934;28;20061;-78
2021/09/30 08:47:54;;;;;;;4.10;3.90;;;19.20;55.50;;;;;;5030412;28;20435;-77
2021/09/30 08:50:20;;;;;;;4.00;3.80;;;19.30;55.40;;;;;;5031731;28;20033;-81
2021/09/30 08:52:46;;;;;;;4.45;4.15;;;19.60;55.30;;;;;;5030455;28;20033;-79
2021/09/30 08:55:12;;;;;;;4.20;4.00;;;19.70;55.10;;;;;;5032525;28;20397;-78
2021/09/30 08:57:47;;;;;;;4.32;4.13;;;19.70;55.10;;;;;;5032142;28;20368;-78
2021/09/30 09:00:14;;;;;;;4.40;4.18;;;19.70;55.10;;;;;;5028523;28;20404;-78
2021/09/30 09:02:43;;;;;;;4.40;4.18;;;19.60;55.30;;;;;;5030947;28;20078;-78
2021/09/30 09:05:10;;;;;;;4.10;3.90;;;19.60;55.50;;;;;;5062873;28;20037;-78
2021/09/30 09:07:37;;;;;;;4.22;4.03;;;19.50;55.50;;;;;;5030562;28;20039;-77
2021/09/30 09:10:11;;;;;;;4.05;3.85;;;19.40;55.40;;;;;;5031761;28;20025;-77
2021/09/30 09:12:37;;;;;;;3.90;3.70;;;19.30;55.50;;;;;;5031320;28;20048;-78
2021/09/30 09:15:04;;;;;;;3.97;3.78;;;19.30;55.60;;;;;;5030082;28;20041;-77
2021/09/30 09:17:30;;;;;;;4.20;4.00;;;19.40;55.50;;;;;;5030481;28;20041;-77
2021/09/30 09:19:58;;;;;;;3.88;3.67;;;19.50;55.50;;;;;;5061707;28;20041;-78
2021/09/30 09:22:33;;;;;;;4.10;3.90;;;19.60;55.50;;;;;;5046696;28;20029;-78
2021/09/30 09:25:19;;;;;;;3.90;3.70;;;19.60;55.20;;;;;;5030718;28;20048;-78
2021/09/30 09:27:51;;;;;;;4.00;3.80;;;19.80;55.00;;;;;;5030963;28;20045;-78
2021/09/30 09:30:32;;;;;;;3.90;3.70;;;19.80;54.80;;;;;;5031155;28;20029;-78
2021/09/30 09:33:16;;;;;;;5.90;3.95;;;19.80;54.70;;;;;;5025540;28;20041;-77
2021/09/30 09:35:52;;;;;;;4.20;4.00;;;19.80;54.70;;;;;;5031526;28;20061;-78
2021/09/30 09:38:20;;;;;;;3.63;3.42;;;19.70;54.30;;;;;;5030055;28;20037;-79
2021/09/30 09:40:47;;;;;;;4.07;3.88;;;19.70;54.40;;;;;;5030075;28;20480;-79
2021/09/30 09:43:39;;;;;;;4.30;4.10;;;19.70;54.40;;;;;;5030144;28;20407;-78
2021/09/30 09:46:06;;;;;;;4.30;4.10;;;19.90;54.30;;;;;;5021094;28;20032;-79
2021/09/30 09:48:33;;;;;;;4.05;3.85;;;19.90;53.80;;;;;;5032225;28;20052;-78
2021/09/30 09:51:00;;;;;;;3.88;3.67;;;19.90;53.60;;;;;;5046176;28;20060;-78
2021/09/30 09:53:27;;;;;;;4.70;4.40;;;19.80;53.70;;;;;;5030964;28;20029;-78
2021/09/30 09:56:07;;;;;;;4.00;3.80;;;19.90;53.70;;;;;;5046228;28;20056;-80
2021/09/30 09:58:45;;;;;;;4.10;3.90;;;20.00;53.50;;;;;;5023875;28;20050;-78
2021/09/30 10:01:11;;;;;;;4.30;4.10;;;20.10;53.30;;;;;;5061071;28;20040;-79
2021/09/30 10:03:37;;;;;;;4.60;4.40;;;20.10;53.20;;;;;;5049663;28;20034;-82
2021/09/30 10:06:04;;;;;;;4.30;4.10;;;20.20;53.00;;;;;;5022865;28;20037;-80
2021/09/30 10:08:32;;;;;;;4.07;3.88;;;20.30;52.90;;;;;;5029290;28;20037;-81
2021/09/30 10:10:59;;;;;;;4.40;4.20;;;20.40;52.80;;;;;;5028304;28;20056;-80
2021/09/30 10:13:26;;;;;;;4.30;4.10;;;20.40;52.60;;;;;;5029567;28;20384;-82
2021/09/30 10:15:56;;;;;;;4.20;4.00;;;20.50;52.60;;;;;;5062196;28;20486;-80
2021/09/30 10:18:26;;;;;;;4.07;3.88;;;20.60;52.50;;;;;;5061324;28;20034;-80
2021/09/30 10:20:52;;;;;;;4.40;4.20;;;20.60;52.30;;;;;;5029563;28;20033;-82
2021/09/30 10:23:31;;;;;;;4.68;4.47;;;20.70;52.20;;;;;;5030074;28;20407;-80
2021/09/30 10:25:59;;;;;;;4.30;4.10;;;20.70;52.20;;;;;;5028251;28;20045;-79
2021/09/30 10:28:26;;;;;;;4.20;4.00;;;20.80;52.10;;;;;;5003821;28;20267;-79
2021/09/30 10:30:53;;;;;;;4.28;4.07;;;20.90;52.10;;;;;;5011988;28;20033;-81
2021/09/30 10:33:22;;;;;;;4.20;4.00;;;20.90;52.00;;;;;;5012639;28;20410;-79
2021/09/30 10:35:52;;;;;;;4.38;4.18;;;21.00;51.90;;;;;;5026964;28;20049;-80
2021/09/30 10:38:22;;;;;;;4.30;4.10;;;21.00;51.80;;;;;;5032147;28;20036;-80
2021/09/30 10:41:00;;;;;;;4.30;4.10;;;21.10;51.70;;;;;;5035038;28;20412;-80
2021/09/30 10:43:31;;;;;;;4.30;4.10;;;21.10;51.70;;;;;;5033639;28;20025;-81
2021/09/30 10:45:57;;;;;;;4.63;4.35;;;21.10;52.20;;;;;;5033500;28;20040;-80
2021/09/30 10:48:23;;;;;;;4.20;4.00;;;21.10;51.60;;;;;;5066515;28;20033;-80
2021/09/30 10:51:09;;;;;;;4.20;4.00;;;21.10;51.50;;;;;;5034090;28;20041;-79
2021/09/30 10:53:44;;;;;;;4.05;3.85;;;21.10;51.50;;;;;;5065402;28;20032;-79
2021/09/30 10:59:13;;;;;;;4.03;3.83;;;21.10;51.40;;;;;;5031731;28;20411;-78
2021/09/30 11:01:48;;;;;;;4.10;3.90;;;21.20;51.30;;;;;;5032395;28;20037;-78
2021/09/30 11:04:15;;;;;;;4.13;3.92;;;21.20;51.30;;;;;;5033490;28;20025;-79
2021/09/30 11:06:41;;;;;;;4.30;4.10;;;21.20;51.10;;;;;;5033448;28;20018;-78
2021/09/30 11:09:15;;;;;;;4.10;3.85;;;21.30;51.10;;;;;;5012210;28;20384;-79
2021/09/30 11:11:46;;;;;;;4.70;4.50;;;21.30;51.00;;;;;;5033281;28;20045;-78
2021/09/30 11:14:13;;;;;;;4.15;3.95;;;21.30;50.90;;;;;;5030090;28;20508;-79
2021/09/30 11:16:41;;;;;;;4.28;4.07;;;21.30;50.90;;;;;;5015335;28;20037;-80
2021/09/30 11:19:33;;;;;;;4.30;4.10;;;21.30;50.80;;;;;;5032565;28;20487;-79
2021/09/30 11:22:05;;;;;;;4.22;4.03;;;21.30;50.80;;;;;;5052236;28;20026;-79
2021/09/30 11:24:48;;;;;;;4.10;3.90;;;21.30;50.70;;;;;;5032633;28;20048;-78
2021/09/30 11:27:15;;;;;;;4.40;4.20;;;21.30;50.70;;;;;;5031960;28;20029;-79
2021/09/30 11:29:41;;;;;;;4.30;4.10;;;21.30;50.70;;;;;;5031394;28;20018;-80
2021/09/30 11:32:10;;;;;;;4.28;4.07;;;21.30;50.70;;;;;;5032820;28;20041;-80
2021/09/30 11:34:41;;;;;;;3.95;3.75;;;21.30;50.60;;;;;;5032687;28;20033;-78
2021/09/30 11:37:20;;;;;;;4.30;4.10;;;21.30;50.40;;;;;;5032228;28;20029;-79
2021/09/30 11:39:50;;;;;;;4.38;4.18;;;21.30;50.40;;;;;;5051297;28;20033;-80
2021/09/30 11:42:37;;;;;;;4.10;3.90;;;21.30;50.30;;;;;;5033089;28;20038;-79
2021/09/30 11:45:13;;;;;;;3.97;3.78;;;21.30;50.20;;;;;;5032428;28;20068;-77
2021/09/30 11:47:39;;;;;;;4.30;4.10;;;21.30;50.20;;;;;;5032841;28;20036;-78
2021/09/30 11:50:08;;;;;;;4.38;4.18;;;21.30;50.10;;;;;;5031692;28;20036;-78
2021/09/30 11:52:34;;;;;;;4.32;4.13;;;21.40;50.00;;;;;;5031263;28;20124;-78
2021/09/30 11:55:15;;;;;;;4.40;4.20;;;21.50;49.90;;;;;;5032117;28;21436;-78
2021/09/30 11:57:51;;;;;;;4.50;4.22;;;21.60;49.70;;;;;;5017174;28;20038;-78
2021/09/30 12:00:18;;;;;;;4.20;4.00;;;21.70;49.50;;;;;;5031900;28;20050;-78
2021/09/30 12:03:01;;;;;;;4.22;4.03;;;21.70;49.40;;;;;;5031484;28;20026;-79
2021/09/30 12:05:29;;;;;;;4.30;4.10;;;21.70;49.20;;;;;;5031495;28;20516;-79
2021/09/30 12:07:58;;;;;;;4.60;4.40;;;21.80;49.20;;;;;;5030628;28;20037;-78
2021/09/30 12:10:25;;;;;;;4.25;4.05;;;21.80;49.10;;;;;;5032623;28;20030;-78
2021/09/30 12:12:51;;;;;;;4.07;3.88;;;21.90;49.00;;;;;;5029126;28;20049;-79
2021/09/30 12:15:17;;;;;;;4.22;4.03;;;21.90;48.90;;;;;;5031987;28;20042;-78
2021/09/30 12:17:43;;;;;;;4.38;4.18;;;22.00;48.90;;;;;;5031306;28;20026;-81
2021/09/30 12:20:12;;;;;;;4.18;3.97;;;22.00;48.80;;;;;;5029961;28;20026;-79
2021/09/30 12:22:39;;;;;;;4.20;4.00;;;22.00;48.80;;;;;;5030756;28;20396;-79
2021/09/30 12:25:08;;;;;;;4.20;4.00;;;21.90;48.70;;;;;;5031177;28;20048;-78
2021/09/30 12:27:37;;;;;;;4.28;4.07;;;22.00;48.70;;;;;;5032070;28;20432;-79
2021/09/30 12:30:07;;;;;;;3.92;3.72;;;22.00;48.60;;;;;;5029694;28;20052;-79
2021/09/30 12:32:35;;;;;;;4.15;3.95;;;22.00;48.60;;;;;;5028611;28;20041;-78
2021/09/30 12:35:07;;;;;;;4.00;3.80;;;22.00;49.10;;;;;;5029958;28;20404;-78
2021/09/30 12:37:37;;;;;;;4.05;3.85;;;22.00;48.50;;;;;;5031007;28;20053;-78
2021/09/30 12:40:06;;;;;;;4.00;3.80;;;22.00;48.40;;;;;;5031524;28;20029;-78
2021/09/30 12:42:32;;;;;;;4.20;4.00;;;22.10;48.30;;;;;;5028969;28;20040;-78
2021/09/30 12:44:58;;;;;;;4.57;4.22;;;22.10;48.20;;;;;;5031624;28;20045;-78
2021/09/30 12:47:32;;;;;;;4.07;3.88;;;22.10;48.10;;;;;;5028412;28;20519;-78
2021/09/30 12:50:11;;;;;;;4.10;3.90;;;22.20;48.00;;;;;;5062424;28;20029;-78
2021/09/30 12:52:38;;;;;;;4.10;3.90;;;22.20;47.90;;;;;;5030128;28;20427;-78
2021/09/30 12:55:20;;;;;;;4.00;3.80;;;22.20;47.80;;;;;;5030005;28;21238;-79
2021/09/30 12:57:47;;;;;;;4.10;3.78;;;22.20;47.70;;;;;;5017273;28;20034;-78
2021/09/30 13:00:17;;;;;;;4.13;3.92;;;22.20;47.70;;;;;;5030284;28;20057;-78
2021/09/30 13:02:44;;;;;;;3.80;3.60;;;22.20;47.70;;;;;;5013548;28;20026;-78
2021/09/30 13:05:10;;;;;;;3.95;3.75;;;22.20;47.60;;;;;;5028155;28;20033;-78
2021/09/30 13:07:52;;;;;;;4.00;3.80;;;22.20;47.60;;;;;;5030691;28;20464;-78
2021/09/30 13:10:19;;;;;;;4.22;3.92;;;22.20;48.10;;;;;;5023275;28;20044;-78
2021/09/30 13:13:04;;;;;;;4.03;3.83;;;22.30;47.40;;;;;;5058410;28;20037;-79
2021/09/30 13:15:34;;;;;;;3.95;3.75;;;22.30;47.20;;;;;;5060299;28;20522;-79
2021/09/30 13:18:01;;;;;;;4.18;3.97;;;22.30;47.80;;;;;;5034060;28;20029;-79
2021/09/30 13:20:27;;;;;;;4.10;3.90;;;22.40;47.10;;;;;;5032381;28;20388;-79
2021/09/30 13:22:53;;;;;;;4.20;4.00;;;22.40;47.10;;;;;;5046061;28;20514;-79
2021/09/30 13:25:20;;;;;;;4.03;3.83;;;22.50;47.00;;;;;;5031125;28;20024;-78
2021/09/30 13:27:47;;;;;;;4.18;3.97;;;22.50;46.80;;;;;;5044899;28;20033;-79
2021/09/30 13:30:24;;;;;;;4.13;3.92;;;22.40;46.90;;;;;;5030544;28;20036;-79
2021/09/30 13:32:51;;;;;;;3.95;3.75;;;22.40;46.80;;;;;;5025303;28;20025;-80
2021/09/30 13:35:17;;;;;;;3.45;3.35;;;22.40;46.70;;;;;;5044280;28;20037;-79
2021/09/30 13:37:43;;;;;;;4.80;3.78;;;22.40;46.70;;;;;;5030170;28;20549;-79
2021/09/30 13:40:10;;;;;;;3.60;3.40;;;22.40;46.70;;;;;;5062101;28;20048;-79
2021/09/30 13:42:37;;;;;;;3.90;3.70;;;22.40;46.70;;;;;;5029968;28;20353;-80
2021/09/30 13:45:04;;;;;;;4.07;3.88;;;22.40;46.60;;;;;;5031313;28;20045;-78
2021/09/30 13:47:31;;;;;;;3.80;3.60;;;22.40;46.70;;;;;;5003056;28;20041;-78
2021/09/30 13:49:57;;;;;;;4.00;3.80;;;22.40;46.60;;;;;;5025859;28;20038;-78
2021/09/30 13:52:23;;;;;;;4.35;4.15;;;22.30;46.50;;;;;;5030404;28;20033;-79
2021/09/30 13:54:49;;;;;;;3.90;3.70;;;22.30;46.50;;;;;;5030140;28;20037;-79
2021/09/30 13:57:15;;;;;;;3.80;3.60;;;22.30;46.50;;;;;;5057438;28;20049;-81
2021/09/30 13:59:43;;;;;;;3.70;3.50;;;22.40;46.40;;;;;;5044311;28;20396;-79
2021/09/30 14:02:09;;;;;;;3.80;3.60;;;22.40;46.40;;;;;;5030087;28;20128;-79
2021/09/30 14:04:35;;;;;;;4.22;4.03;;;22.40;46.30;;;;;;5046362;28;20037;-79
2021/09/30 14:07:05;;;;;;;3.70;3.50;;;22.50;46.30;;;;;;5030141;28;20519;-79
2021/09/30 14:09:32;;;;;;;4.13;3.92;;;22.50;46.80;;;;;;5045781;28;20033;-80
2021/09/30 14:11:59;;;;;;;4.30;4.10;;;22.50;46.10;;;;;;5031821;28;20044;-79
2021/09/30 14:14:25;;;;;;;4.30;4.10;;;22.50;46.00;;;;;;5033960;28;20025;-78
2021/09/30 14:16:51;;;;;;;3.80;3.60;;;22.50;46.10;;;;;;5036760;28;20050;-78
2021/09/30 14:19:18;;;;;;;4.68;4.38;;;22.50;46.10;;;;;;5032948;28;20483;-79
2021/09/30 14:21:44;;;;;;;4.13;3.92;;;22.50;46.10;;;;;;5034883;28;20037;-78
2021/09/30 14:24:10;;;;;;;4.10;3.90;;;22.40;46.00;;;;;;5045243;28;20048;-79
2021/09/30 14:26:37;;;;;;;4.07;3.88;;;22.40;46.10;;;;;;5045941;28;20369;-82
2021/09/30 14:29:03;;;;;;;4.20;4.00;;;22.40;46.10;;;;;;5031132;28;20048;-79
2021/09/30 14:31:29;;;;;;;4.72;4.43;;;22.40;46.10;;;;;;5032402;28;20052;-79
2021/09/30 14:33:55;;;;;;;4.00;3.80;;;22.40;46.00;;;;;;5031551;28;20044;-81
2021/09/30 14:36:21;;;;;;;4.00;3.80;;;22.40;45.90;;;;;;5033213;28;20045;-80
2021/09/30 14:38:47;;;;;;;4.15;3.95;;;22.40;45.90;;;;;;5032611;28;20030;-78
2021/09/30 14:41:14;;;;;;;3.95;3.75;;;22.30;45.90;;;;;;5057410;28;20032;-77
2021/09/30 14:43:40;;;;;;;3.78;3.58;;;22.30;45.90;;;;;;5025195;28;20052;-81
2021/09/30 14:46:07;;;;;;;4.18;3.97;;;22.20;45.80;;;;;;5028192;28;20033;-80
2021/09/30 14:48:33;;;;;;;4.30;4.10;;;22.20;45.80;;;;;;5028136;28;20037;-79
2021/09/30 14:51:01;;;;;;;4.20;4.00;;;22.20;45.80;;;;;;5032088;28;20033;-81
2021/09/30 14:53:28;;;;;;;4.10;3.90;;;22.20;45.70;;;;;;5032189;28;20034;-79
2021/09/30 14:55:54;;;;;;;4.18;3.97;;;22.20;45.70;;;;;;5052541;28;20507;-80
2021/09/30 14:58:20;;;;;;;4.25;4.05;;;22.20;45.70;;;;;;5023275;28;20046;-79
2021/09/30 15:00:46;;;;;;;4.55;4.15;;;22.20;45.70;;;;;;5063362;28;20038;-79
2021/09/30 15:03:12;;;;;;;4.13;3.92;;;22.20;45.70;;;;;;5061603;28;20028;-78
2021/09/30 15:05:38;;;;;;;3.97;3.78;;;22.20;45.70;;;;;;5034761;28;20483;-80
2021/09/30 15:08:05;;;;;;;4.05;3.85;;;22.20;45.60;;;;;;5041136;28;20061;-81
2021/09/30 15:10:31;;;;;;;4.18;3.97;;;22.10;45.60;;;;;;5028522;28;20037;-82
2021/09/30 15:12:57;;;;;;;4.15;3.95;;;22.10;45.60;;;;;;5063122;28;20495;-82
2021/09/30 15:15:24;;;;;;;4.13;3.92;;;22.20;45.60;;;;;;5064412;28;20038;-78
2021/09/30 15:18:21;;;;;;;3.78;3.58;;;22.20;45.60;;;;;;5033171;28;20033;-79
2021/09/30 15:23:03;;;;;;;4.05;3.85;;;22.20;45.50;;;;;;5032137;28;20045;-80
2021/09/30 15:25:29;;;;;;;4.03;3.83;;;22.20;45.50;;;;;;5028734;28;20033;-79
2021/09/30 15:27:56;;;;;;;3.97;3.78;;;22.10;45.40;;;;;;5065860;28;20128;-78
2021/09/30 15:30:23;;;;;;;3.95;3.75;;;22.20;45.40;;;;;;5064270;28;20037;-86
2021/09/30 15:32:50;;;;;;;3.88;3.67;;;22.10;45.40;;;;;;5031043;28;20037;-87
2021/09/30 15:35:16;;;;;;;4.07;3.88;;;22.10;45.40;;;;;;5033429;28;20025;-86
2021/09/30 15:37:42;;;;;;;4.10;3.90;;;22.10;45.40;;;;;;5032008;28;20037;-87
2021/09/30 15:40:08;;;;;;;3.90;3.70;;;22.10;45.40;;;;;;5064703;28;20025;-86
2021/09/30 15:42:35;;;;;;;4.07;3.88;;;22.10;45.30;;;;;;5030641;28;20044;-88
2021/09/30 15:45:01;;;;;;;3.95;3.75;;;22.10;45.30;;;;;;5033582;28;20033;-86
2021/09/30 15:47:27;;;;;;;4.10;3.90;;;22.10;45.30;;;;;;5031137;28;20538;-87
2021/09/30 15:49:53;;;;;;;3.97;3.78;;;22.10;45.30;;;;;;5031528;28;20045;-87
2021/09/30 15:52:19;;;;;;;3.92;3.72;;;22.10;45.90;;;;;;5032076;28;20029;-85